createdAt,value
2022-08-09T00:00:44.555Z,1.52
2022-08-09T00:04:03.619Z,1.77
2022-08-09T00:07:15.023Z,1.65
2022-08-09T00:10:24.634Z,2.40
2022-08-09T00:13:31.637Z,1.63
2022-08-09T00:16:38.503Z,3.40
2022-08-09T00:19:48.072Z,1.80
2022-08-09T00:22:52.890Z,1.70
2022-08-09T00:25:57.760Z,2.03
2022-08-09T00:29:03.194Z,3.00
2022-08-09T00:32:07.835Z,2.85
2022-08-09T00:35:17.493Z,1.73
2022-08-09T00:38:22.975Z,2.15
2022-08-09T00:44:13.488Z,1.92
2022-08-09T00:44:55.747Z,3.38
2022-08-09T00:48:01.709Z,2.28
2022-08-09T00:51:11.951Z,2.17
2022-08-09T00:54:17.748Z,1.42
2022-08-09T00:57:24.723Z,1.70
2022-08-09T01:00:42.168Z,2.13
2022-08-09T01:04:06.793Z,2.53
2022-08-09T01:07:37.554Z,2.03
2022-08-09T01:11:36.069Z,2.35
2022-08-09T01:14:48.103Z,1.92
2022-08-09T01:18:16.505Z,3.70
2022-08-09T01:21:44.851Z,1.88
2022-08-09T01:25:24.862Z,1.60
2022-08-09T01:28:30.816Z,1.85
2022-08-09T01:32:37.747Z,2.28
2022-08-09T01:35:28.683Z,2.80
2022-08-09T01:38:41.538Z,2.80
2022-08-09T01:41:55.990Z,2.40
2022-08-09T01:45:08.409Z,2.67
2022-08-09T01:48:15.567Z,3.28
2022-08-09T01:51:22.709Z,2.33
2022-08-09T01:54:37.019Z,3.53
2022-08-09T01:57:46.222Z,2.67
2022-08-09T02:01:00.395Z,3.55
2022-08-09T02:04:06.846Z,3.00
2022-08-09T02:08:40.053Z,3.22
2022-08-09T02:10:51.674Z,3.50
2022-08-09T02:14:06.955Z,3.60
2022-08-09T02:17:15.075Z,2.55
2022-08-09T02:20:47.735Z,2.83
2022-08-09T02:23:56.680Z,3.05
2022-08-09T02:27:06.739Z,2.92
2022-08-09T02:30:12.267Z,2.50
2022-08-09T02:33:58.350Z,4.90
2022-08-09T02:36:57.267Z,3.38
2022-08-09T02:40:09.249Z,2.75
2022-08-09T02:43:16.396Z,3.28
2022-08-09T02:46:27.670Z,3.88
2022-08-09T02:49:41.454Z,4.82
2022-08-09T02:52:59.618Z,3.13
2022-08-09T02:56:06.136Z,3.33
2022-08-09T02:59:17.331Z,4.13
2022-08-09T03:02:32.207Z,3.72
2022-08-09T03:05:42.035Z,4.50
2022-08-09T03:08:48.226Z,2.92
2022-08-09T03:12:08.521Z,3.33
2022-08-09T03:15:16.770Z,4.40
2022-08-09T03:18:31.122Z,4.38
2022-08-09T03:21:39.684Z,4.22
2022-08-09T03:24:51.925Z,4.30
2022-08-09T03:27:57.674Z,3.60
2022-08-09T03:31:09.968Z,3.83
2022-08-09T03:34:15.506Z,3.83
2022-08-09T03:37:56.180Z,4.10
2022-08-09T03:44:03.078Z,3.85
2022-08-09T03:47:13.857Z,4.63
2022-08-09T03:50:31.732Z,4.45
2022-08-09T03:53:39.663Z,4.03
2022-08-09T03:56:46.490Z,4.90
2022-08-09T03:59:55.962Z,6.30
2022-08-09T04:03:06.963Z,4.82
2022-08-09T04:06:11.907Z,4.88
2022-08-09T04:09:44.497Z,4.07
2022-08-09T04:12:51.423Z,3.97
2022-08-09T04:16:19.883Z,4.75
2022-08-09T04:19:30.339Z,4.53
2022-08-09T04:22:46.532Z,5.57
2022-08-09T04:25:52.092Z,4.20
2022-08-09T04:29:00.524Z,4.82
2022-08-09T04:32:06.942Z,4.88
2022-08-09T04:35:13.291Z,4.40
2022-08-09T04:38:20.028Z,4.35
2022-08-09T04:41:32.912Z,4.28
2022-08-09T04:44:38.905Z,5.32
2022-08-09T04:48:01.123Z,4.57
2022-08-09T04:51:09.515Z,4.63
2022-08-09T04:54:13.713Z,5.03
2022-08-09T04:57:24.144Z,4.70
2022-08-09T05:00:34.235Z,5.88
2022-08-09T05:03:42.706Z,4.40
2022-08-09T05:06:50.562Z,4.22
2022-08-09T05:09:56.020Z,4.53
2022-08-09T05:13:00.730Z,3.67
2022-08-09T05:16:10.148Z,4.20
2022-08-09T05:19:15.143Z,5.10
2022-08-09T05:22:33.422Z,3.50
2022-08-09T05:25:41.744Z,3.22
2022-08-09T05:28:46.629Z,3.53
2022-08-09T05:31:58.370Z,3.60
2022-08-09T05:35:03.855Z,2.90
2022-08-09T05:38:08.660Z,3.65
2022-08-09T05:41:13.185Z,4.10
2022-08-09T05:44:22.346Z,3.38
2022-08-09T05:47:33.954Z,2.95
2022-08-09T05:50:57.120Z,4.18
2022-08-09T05:54:15.309Z,3.58
2022-08-09T05:57:25.028Z,3.08
2022-08-09T06:00:47.932Z,3.22
2022-08-09T06:03:58.768Z,3.10
2022-08-09T06:07:04.291Z,3.03
2022-08-09T06:10:15.891Z,3.25
2022-08-09T06:13:23.782Z,1.75
2022-08-09T06:16:27.898Z,2.20
2022-08-09T06:19:32.513Z,3.28
2022-08-09T06:22:37.370Z,2.42
2022-08-09T06:25:43.209Z,3.40
2022-08-09T06:29:01.168Z,2.70
2022-08-09T06:32:53.298Z,2.15
2022-08-09T06:35:56.390Z,2.25
2022-08-09T06:39:02.455Z,2.67
2022-08-09T06:42:13.789Z,2.35
2022-08-09T06:46:04.850Z,1.73
2022-08-09T06:48:43.997Z,3.88
2022-08-09T06:51:49.806Z,1.65
2022-08-09T06:54:55.974Z,2.40
2022-08-09T06:58:04.504Z,1.98
2022-08-09T07:01:09.529Z,1.90
2022-08-09T07:04:20.025Z,1.08
2022-08-09T07:07:58.728Z,2.28
2022-08-09T07:10:49.645Z,1.40
2022-08-09T07:14:04.762Z,1.85
2022-08-09T07:17:10.614Z,1.25
2022-08-09T07:20:16.745Z,1.88
2022-08-09T07:23:21.428Z,1.45
2022-08-09T07:26:27.606Z,2.92
2022-08-09T07:29:37.797Z,1.25
2022-08-09T07:32:46.714Z,2.58
2022-08-09T07:35:56.147Z,2.10
2022-08-09T07:39:02.168Z,2.53
2022-08-09T07:42:07.305Z,2.10
2022-08-09T07:45:22.674Z,2.50
2022-08-09T07:48:36.929Z,1.95
2022-08-09T07:52:03.491Z,2.42
2022-08-09T07:55:11.515Z,2.17
2022-08-09T07:58:16.549Z,1.40
2022-08-09T08:01:25.472Z,1.80
2022-08-09T08:04:38.820Z,2.10
2022-08-09T08:08:06.304Z,1.35
2022-08-09T08:12:10.511Z,1.35
2022-08-09T08:14:33.825Z,1.13
2022-08-09T08:17:54.229Z,1.70
2022-08-09T08:20:59.955Z,0.90
2022-08-09T08:24:11.869Z,1.13
2022-08-09T08:27:23.809Z,1.55
2022-08-09T08:30:30.854Z,1.08
2022-08-09T08:33:49.715Z,0.98
2022-08-09T08:36:57.747Z,0.50
2022-08-09T08:40:07.283Z,0.40
2022-08-09T08:43:13.678Z,0.75
2022-08-09T08:46:33.303Z,0.57
2022-08-09T08:49:48.310Z,1.02
2022-08-09T08:52:59.396Z,0.50
2022-08-09T08:56:06.990Z,0.73
2022-08-09T08:59:20.064Z,0.60
2022-08-09T09:02:30.792Z,0.75
2022-08-09T09:05:57.958Z,0.85
2022-08-09T09:09:06.665Z,0.75
2022-08-09T09:12:34.151Z,0.55
2022-08-09T09:15:40.161Z,0.93
2022-08-09T09:18:50.948Z,1.42
2022-08-09T09:22:12.565Z,0.43
2022-08-09T09:26:01.354Z,0.22
2022-08-09T09:29:16.910Z,1.15
2022-08-09T09:32:34.154Z,0.30
2022-08-09T09:36:20.487Z,0.30
2022-08-09T09:39:42.898Z,0.75
2022-08-09T09:42:57.795Z,0.52
2022-08-09T09:49:56.534Z,1.00
2022-08-09T09:52:54.899Z,0.60
2022-08-09T09:56:04.362Z,0.75
2022-08-09T09:59:13.144Z,0.20
2022-08-09T10:02:23.258Z,0.38
2022-08-09T10:06:04.090Z,0.80
2022-08-09T10:09:11.789Z,1.13
2022-08-09T10:12:43.460Z,1.85
2022-08-09T10:16:54.623Z,0.30
2022-08-09T10:19:17.333Z,1.30
2022-08-09T10:22:40.941Z,0.45
2022-08-09T10:26:06.123Z,0.57
2022-08-09T10:29:36.742Z,0.43
2022-08-09T10:32:48.634Z,0.60
2022-08-09T10:35:56.714Z,1.02
2022-08-09T10:39:15.553Z,0.50
2022-08-09T10:42:26.949Z,0.60
2022-08-09T10:45:35.697Z,0.50
2022-08-09T10:49:21.626Z,0.27
2022-08-09T10:53:05.659Z,0.53
2022-08-09T10:56:24.041Z,0.57
2022-08-09T10:59:31.845Z,1.27
2022-08-09T11:03:14.732Z,1.15
2022-08-09T11:06:16.777Z,1.02
2022-08-09T11:09:48.190Z,0.50
2022-08-09T11:13:49.337Z,0.50
2022-08-09T11:16:42.718Z,0.50
2022-08-09T11:20:11.888Z,0.75
2022-08-09T11:23:30.248Z,0.85
2022-08-09T11:26:52.150Z,0.88
2022-08-09T11:30:04.945Z,1.08
2022-08-09T11:33:17.084Z,1.10
2022-08-09T11:36:35.533Z,0.77
2022-08-09T11:40:01.405Z,1.17
2022-08-09T11:43:07.791Z,0.93
2022-08-09T11:46:26.804Z,0.90
2022-08-09T11:50:54.163Z,1.10
2022-08-09T11:53:59.653Z,0.60
2022-08-09T11:57:15.486Z,0.60
2022-08-09T12:00:27.331Z,0.57
2022-08-09T12:03:56.006Z,0.57
2022-08-09T12:06:57.747Z,1.30
2022-08-09T12:10:03.267Z,0.82
2022-08-09T12:14:07.755Z,0.70
2022-08-09T12:16:44.000Z,0.70
2022-08-09T12:19:52.158Z,0.57
2022-08-09T12:23:04.626Z,0.50
2022-08-09T12:26:09.585Z,0.88
2022-08-09T12:29:33.643Z,0.45
2022-08-09T12:32:48.415Z,1.30
2022-08-09T12:36:27.488Z,0.90
2022-08-09T12:39:31.308Z,0.63
2022-08-09T12:42:50.673Z,1.23
2022-08-09T12:45:59.887Z,0.30
2022-08-09T12:49:07.212Z,0.45
2022-08-09T12:52:12.009Z,1.63
2022-08-09T12:56:12.982Z,0.85
2022-08-09T12:59:16.789Z,0.40
2022-08-09T13:02:21.175Z,1.23
2022-08-09T13:05:52.364Z,0.68
2022-08-09T13:09:21.291Z,0.47
2022-08-09T13:12:26.792Z,0.82
2022-08-09T13:15:33.979Z,0.80
2022-08-09T13:18:44.899Z,0.75
2022-08-09T13:22:36.206Z,1.70
2022-08-09T13:25:52.815Z,1.02
2022-08-09T13:29:08.379Z,0.60
2022-08-09T13:32:25.448Z,1.65
2022-08-09T13:35:34.617Z,0.98
2022-08-09T13:38:59.904Z,0.82
2022-08-09T13:42:13.709Z,0.30
2022-08-09T13:45:19.976Z,1.05
2022-08-09T13:48:24.744Z,0.90
2022-08-09T13:51:29.652Z,0.52
2022-08-09T13:54:34.892Z,1.25
2022-08-09T13:57:56.324Z,1.38
2022-08-09T14:01:03.225Z,1.17
2022-08-09T14:04:11.513Z,1.42
2022-08-09T14:07:16.681Z,0.70
2022-08-09T14:10:37.453Z,0.60
2022-08-09T14:14:23.194Z,0.77
2022-08-09T14:17:13.240Z,0.47
2022-08-09T14:20:23.785Z,0.77
2022-08-09T14:23:54.246Z,0.50
2022-08-09T14:26:58.094Z,1.33
2022-08-09T14:30:35.790Z,0.55
2022-08-09T14:33:27.548Z,0.90
2022-08-09T14:36:35.331Z,0.85
2022-08-09T14:42:53.316Z,0.63
2022-08-09T14:46:54.365Z,0.60
2022-08-09T14:49:24.527Z,1.42
2022-08-09T14:52:29.343Z,0.30
2022-08-09T14:55:34.300Z,0.80
2022-08-09T14:58:44.024Z,0.47
2022-08-09T15:01:48.972Z,0.55
2022-08-09T15:04:53.861Z,0.90
2022-08-09T15:07:58.608Z,2.10
2022-08-09T15:11:07.098Z,0.60
2022-08-09T15:14:13.287Z,0.35
2022-08-09T15:17:17.873Z,0.77
2022-08-09T15:21:56.529Z,0.80
2022-08-09T15:24:02.153Z,1.13
2022-08-09T15:27:12.476Z,0.28
2022-08-09T15:30:55.336Z,0.40
2022-08-09T15:34:19.565Z,0.55
2022-08-09T15:37:38.130Z,1.10
2022-08-09T15:40:51.774Z,0.45
2022-08-09T15:43:56.004Z,0.40
2022-08-09T15:47:03.262Z,0.38
2022-08-09T15:50:13.225Z,0.70
2022-08-09T15:54:04.360Z,0.85
2022-08-09T15:56:42.742Z,1.42
2022-08-09T15:59:51.783Z,0.60
2022-08-09T16:02:57.407Z,0.80
2022-08-09T16:06:03.649Z,0.55
2022-08-09T16:09:08.176Z,0.52
2022-08-09T16:12:12.775Z,1.05
2022-08-09T16:16:11.206Z,0.93
2022-08-09T16:18:46.027Z,1.38
2022-08-09T16:21:52.028Z,1.13
2022-08-09T16:24:59.670Z,0.45
2022-08-09T16:28:06.106Z,1.17
2022-08-09T16:31:16.129Z,0.43
2022-08-09T16:34:20.778Z,1.00
2022-08-09T16:37:55.203Z,0.88
2022-08-09T16:40:53.153Z,0.45
2022-08-09T16:43:59.651Z,0.43
2022-08-09T16:48:50.573Z,1.27
2022-08-09T16:50:34.120Z,1.05
2022-08-09T16:54:02.322Z,1.17
2022-08-09T16:57:04.350Z,1.65
2022-08-09T17:00:11.518Z,0.85
2022-08-09T17:03:21.521Z,2.50
2022-08-09T17:07:04.707Z,0.45
2022-08-09T17:10:02.161Z,0.77
2022-08-09T17:13:10.717Z,0.93
2022-08-09T17:16:15.361Z,1.42
2022-08-09T17:19:21.382Z,0.77
2022-08-09T17:22:30.875Z,1.13
2022-08-09T17:25:44.999Z,0.40
2022-08-09T17:28:57.773Z,0.50
2022-08-09T17:32:03.801Z,1.35
2022-08-09T17:35:11.503Z,0.77
2022-08-09T17:38:32.099Z,1.42
2022-08-09T17:41:39.350Z,0.60
2022-08-09T17:44:47.534Z,1.02
2022-08-09T17:47:55.485Z,1.48
2022-08-09T17:51:17.361Z,0.60
2022-08-09T17:54:25.326Z,1.60
2022-08-09T17:58:02.211Z,2.78
2022-08-09T18:00:58.951Z,0.80
2022-08-09T18:04:03.873Z,0.77
2022-08-09T18:07:08.838Z,1.48
2022-08-09T18:10:13.752Z,0.57
2022-08-09T18:13:43.640Z,0.50
2022-08-09T18:16:49.217Z,0.40
2022-08-09T18:21:00.288Z,2.22
2022-08-09T18:24:09.999Z,0.50
2022-08-09T18:26:47.024Z,0.50
2022-08-09T18:30:41.748Z,1.15
2022-08-09T18:33:23.032Z,0.68
2022-08-09T18:36:36.284Z,1.23
2022-08-09T18:39:48.409Z,0.50
2022-08-09T18:42:53.234Z,0.32
2022-08-09T18:46:49.011Z,0.73
2022-08-09T18:49:23.509Z,0.40
2022-08-09T18:52:34.652Z,0.52
2022-08-09T18:55:56.022Z,0.43
2022-08-09T18:59:02.685Z,1.27
2022-08-09T19:02:09.445Z,0.75
2022-08-09T19:05:28.230Z,1.30
2022-08-09T19:08:36.868Z,0.52
2022-08-09T19:11:46.304Z,1.05
2022-08-09T19:14:51.703Z,0.88
2022-08-09T19:17:58.502Z,0.40
2022-08-09T19:21:09.295Z,1.38
2022-08-09T19:24:33.504Z,0.50
2022-08-09T19:27:42.319Z,0.45
2022-08-09T19:30:46.850Z,0.80
2022-08-09T19:33:56.719Z,1.05
2022-08-09T19:37:03.102Z,0.90
2022-08-09T19:40:08.886Z,0.70
2022-08-09T19:43:16.295Z,0.50
2022-08-09T19:46:50.833Z,0.85
2022-08-09T19:50:49.720Z,0.85
2022-08-09T19:53:30.813Z,0.85
2022-08-09T19:56:50.631Z,0.65
2022-08-09T19:59:59.410Z,0.68
2022-08-09T20:04:16.971Z,0.88
2022-08-09T20:06:40.014Z,0.65
2022-08-09T20:09:47.391Z,2.15
2022-08-09T20:12:54.866Z,2.00
2022-08-09T20:16:37.575Z,0.77
2022-08-09T20:19:47.460Z,0.93
2022-08-09T20:22:49.216Z,1.10
2022-08-09T20:25:54.565Z,1.15
2022-08-09T20:29:01.766Z,0.98
2022-08-09T20:32:33.426Z,0.73
2022-08-09T20:35:45.463Z,0.50
2022-08-09T20:39:18.677Z,1.05
2022-08-09T20:42:21.204Z,1.00
2022-08-09T20:46:00.610Z,0.55
2022-08-09T20:48:53.927Z,0.90
2022-08-09T20:51:58.503Z,1.17
2022-08-09T20:55:11.684Z,1.15
2022-08-09T20:58:20.252Z,0.60
2022-08-09T21:01:32.855Z,1.05
2022-08-09T21:05:51.660Z,0.45
2022-08-09T21:08:10.683Z,0.85
2022-08-09T21:14:41.744Z,1.45
2022-08-09T21:18:21.162Z,0.73
2022-08-09T21:21:17.638Z,0.80
2022-08-09T21:24:28.778Z,0.75
2022-08-09T21:27:52.436Z,0.82
2022-08-09T21:30:58.248Z,0.60
2022-08-09T21:34:03.008Z,1.02
2022-08-09T21:37:18.028Z,3.17
2022-08-09T21:40:30.590Z,2.97
2022-08-09T21:43:57.777Z,1.35
2022-08-09T21:47:04.622Z,0.90
2022-08-09T21:50:10.871Z,1.25
2022-08-09T21:53:40.980Z,1.08
2022-08-09T21:56:54.469Z,0.93
2022-08-09T21:59:59.374Z,1.63
2022-08-09T22:03:07.573Z,0.80
2022-08-09T22:06:17.159Z,1.00
2022-08-09T22:09:25.330Z,1.23
2022-08-09T22:12:34.573Z,0.70
2022-08-09T22:15:39.606Z,0.70
2022-08-09T22:18:53.980Z,0.60
2022-08-09T22:21:59.110Z,0.82
2022-08-09T22:26:07.084Z,0.98
2022-08-09T22:28:29.578Z,1.75
2022-08-09T22:31:50.215Z,1.13
2022-08-09T22:35:06.864Z,1.02
2022-08-09T22:38:27.838Z,0.50
2022-08-09T22:41:32.769Z,1.73
2022-08-09T22:44:39.015Z,1.35
2022-08-09T22:48:12.379Z,1.90
2022-08-09T22:51:49.841Z,1.45
2022-08-09T22:55:02.745Z,1.92
2022-08-09T22:58:07.571Z,1.23
2022-08-09T23:01:13.707Z,1.60
2022-08-09T23:04:18.703Z,2.17
2022-08-09T23:08:29.341Z,1.63
2022-08-09T23:11:11.158Z,2.17
2022-08-09T23:14:17.517Z,2.45
2022-08-09T23:17:22.278Z,1.60
2022-08-09T23:20:28.770Z,1.85
2022-08-09T23:23:33.730Z,2.50
2022-08-09T23:26:39.214Z,3.70
2022-08-09T23:29:43.933Z,2.17
2022-08-09T23:32:48.420Z,1.98
2022-08-09T23:36:05.610Z,1.90
2022-08-09T23:39:12.222Z,2.00
2022-08-09T23:42:17.151Z,1.30
2022-08-09T23:45:36.504Z,2.13
2022-08-09T23:48:42.292Z,1.50
2022-08-09T23:51:46.849Z,1.85
2022-08-09T23:54:51.685Z,2.28
2022-08-09T23:58:08.242Z,1.38
